createdAt,value
2023-02-11T00:01:22.533Z,98303.63
2023-02-11T00:06:28.627Z,98301.97
2023-02-11T00:11:31.623Z,98300.44
2023-02-11T00:16:36.167Z,98292.31
2023-02-11T00:21:39.130Z,98285.81
2023-02-11T00:26:42.016Z,98284.50
2023-02-11T00:31:46.286Z,98283.09
2023-02-11T00:36:49.649Z,98274.59
2023-02-11T00:41:52.504Z,98277.31
2023-02-11T00:46:56.637Z,98268.91
2023-02-11T00:51:59.603Z,98271.88
2023-02-11T00:57:02.511Z,98265.41
2023-02-11T01:02:06.688Z,98260.19
2023-02-11T01:07:09.648Z,98254.53
2023-02-11T01:12:12.476Z,98260.44
2023-02-11T01:17:16.724Z,98268.56
2023-02-11T01:22:19.508Z,98259.63
2023-02-11T01:27:22.343Z,98255.25
2023-02-11T01:32:26.629Z,98252.28
2023-02-11T01:37:29.541Z,98258.31
2023-02-11T01:42:32.372Z,98246.41
2023-02-11T01:47:36.502Z,98249.34
2023-02-11T01:52:40.820Z,98251.81
2023-02-11T01:57:47.255Z,98241.44
2023-02-11T02:02:55.642Z,98240.34
2023-02-11T02:08:04.148Z,98241.69
2023-02-11T02:13:07.464Z,98237.06
2023-02-11T02:18:20.834Z,98239.56
2023-02-11T02:23:29.911Z,98230.56
2023-02-11T02:28:54.612Z,98230.47
2023-02-11T02:34:02.308Z,98229.88
2023-02-11T02:39:07.846Z,98217.38
2023-02-11T02:44:10.729Z,98210.88
2023-02-11T02:49:16.224Z,98204.38
2023-02-11T02:54:40.665Z,98206.28
2023-02-11T02:59:52.174Z,98213.38
2023-02-11T03:04:59.113Z,98205.81
2023-02-11T03:10:06.743Z,98193.06
2023-02-11T03:15:10.626Z,98190.59
2023-02-11T03:20:16.110Z,98193.53
2023-02-11T03:25:19.571Z,98187.03
2023-02-11T03:30:27.953Z,98192.72
2023-02-11T03:35:34.321Z,98183.53
2023-02-11T03:40:39.759Z,98183.53
2023-02-11T03:45:42.690Z,98168.03
2023-02-11T03:50:47.915Z,98172.66
2023-02-11T03:55:52.563Z,98166.06
2023-02-11T04:00:55.647Z,98165.47
2023-02-11T04:06:02.301Z,98167.97
2023-02-11T04:11:05.128Z,98165.59
2023-02-11T04:16:08.355Z,98164.19
2023-02-11T04:21:12.646Z,98162.28
2023-02-11T04:26:15.534Z,98166.63
2023-02-11T04:31:18.542Z,98157.69
2023-02-11T04:36:22.726Z,98151.69
2023-02-11T04:41:25.524Z,98145.19
2023-02-11T04:46:28.491Z,98154.41
2023-02-11T04:51:32.758Z,98148.25
2023-02-11T04:56:35.704Z,98158.50
2023-02-11T05:01:38.543Z,98157.09
2023-02-11T05:06:42.751Z,98158.75
2023-02-11T05:11:45.664Z,98153.22
2023-02-11T05:16:48.615Z,98147.78
2023-02-11T05:22:02.156Z,98148.03
2023-02-11T05:27:06.062Z,98150.72
2023-02-11T05:32:09.175Z,98138.56
2023-02-11T05:37:13.430Z,98150.50
2023-02-11T05:42:16.469Z,98150.50
2023-02-11T05:47:19.328Z,98140.72
2023-02-11T05:52:23.929Z,98140.72
2023-02-11T05:57:26.733Z,98141.75
2023-02-11T06:02:29.687Z,98134.44
2023-02-11T06:07:33.920Z,98129.88
2023-02-11T06:12:37.471Z,98136.31
2023-02-11T06:17:40.342Z,98135.28
2023-02-11T06:22:44.606Z,98119.00
2023-02-11T06:27:47.441Z,98128.19
2023-02-11T06:32:51.162Z,98129.88
2023-02-11T06:37:55.396Z,98130.56
2023-02-11T06:42:59.433Z,98129.75
2023-02-11T06:48:02.276Z,98137.66
2023-02-11T06:53:06.472Z,98150.38
2023-02-11T06:58:09.486Z,98149.53
2023-02-11T07:03:12.395Z,98159.94
2023-02-11T07:08:16.827Z,98161.59
2023-02-11T07:13:19.625Z,98173.84
2023-02-11T07:18:22.486Z,98184.25
2023-02-11T07:23:26.738Z,98183.41
2023-02-11T07:28:29.592Z,98187.53
2023-02-11T07:33:32.539Z,98190.25
2023-02-11T07:38:37.367Z,98198.38
2023-02-11T07:43:41.160Z,98210.88
2023-02-11T07:48:43.977Z,98220.66
2023-02-11T07:53:48.143Z,98231.88
2023-02-11T07:58:51.565Z,98230.47
2023-02-11T08:03:54.868Z,98243.22
2023-02-11T08:08:59.369Z,98233.66
2023-02-11T08:14:02.524Z,98244.03
2023-02-11T08:19:08.504Z,98232.94
2023-02-11T08:24:12.877Z,98228.34
2023-02-11T08:29:17.671Z,98236.25
2023-02-11T08:34:20.463Z,98232.72
2023-02-11T08:39:24.616Z,98229.41
2023-02-11T08:44:27.415Z,98238.13
2023-02-11T08:49:32.277Z,98232.72
2023-02-11T08:54:36.426Z,98240.34
2023-02-11T08:59:40.019Z,98243.34
2023-02-11T09:04:42.870Z,98242.25
2023-02-11T09:09:47.091Z,98241.44
2023-02-11T09:14:49.889Z,98246.06
2023-02-11T09:19:52.706Z,98250.19
2023-02-11T09:24:56.964Z,98254.53
2023-02-11T09:29:59.765Z,98248.03
2023-02-11T09:35:02.683Z,98243.19
2023-02-11T09:40:07.910Z,98247.81
2023-02-11T09:45:15.852Z,98257.81
2023-02-11T09:50:21.538Z,98261.38
2023-02-11T09:55:28.243Z,98263.88
2023-02-11T10:00:34.985Z,98275.06
2023-02-11T10:05:50.731Z,98285.09
2023-02-11T10:11:01.065Z,98283.22
2023-02-11T10:16:10.994Z,98285.31
2023-02-11T10:21:20.545Z,98297.00
2023-02-11T10:26:24.826Z,98297.81
2023-02-11T10:31:30.134Z,98290.75
2023-02-11T10:36:35.539Z,98303.03
2023-02-11T10:41:43.602Z,98298.44
2023-02-11T10:46:46.634Z,98303.63
2023-02-11T10:51:49.463Z,98301.72
2023-02-11T10:57:00.833Z,98298.78
2023-02-11T11:02:07.822Z,98298.78
2023-02-11T11:07:20.175Z,98283.56
2023-02-11T11:12:32.949Z,98274.34
2023-02-11T11:17:35.867Z,98259.34
2023-02-11T11:22:39.317Z,98243.66
2023-02-11T11:27:43.503Z,98236.34
2023-02-11T11:32:46.602Z,98236.13
2023-02-11T11:37:54.251Z,98231.25
2023-02-11T11:43:08.513Z,98215.22
2023-02-11T11:48:14.586Z,98197.28
2023-02-11T11:53:22.629Z,98192.06
2023-02-11T11:58:26.785Z,98186.41
2023-02-11T12:03:49.204Z,98181.56
2023-02-11T12:09:01.338Z,98172.38
2023-02-11T12:14:13.257Z,98168.59
2023-02-11T12:19:36.920Z,98154.19
2023-02-11T12:24:51.967Z,98151.47
2023-02-11T12:30:08.251Z,98131.88
2023-02-11T12:35:39.567Z,98130.59
2023-02-11T12:40:46.377Z,98115.72
2023-02-11T12:46:08.727Z,98104.84
2023-02-11T12:51:19.680Z,98102.13
2023-02-11T12:56:26.395Z,98095.88
2023-02-11T13:01:34.772Z,98089.63
2023-02-11T13:06:41.373Z,98079.34
2023-02-11T13:11:51.654Z,98086.19
2023-02-11T13:16:57.118Z,98076.72
2023-02-11T13:22:07.367Z,98074.00
2023-02-11T13:27:19.525Z,98066.66
2023-02-11T13:32:23.990Z,98067.97
2023-02-11T13:37:28.541Z,98065.88
2023-02-11T13:42:50.872Z,98054.78
2023-02-11T13:47:58.403Z,98053.69
2023-02-11T13:53:02.688Z,98046.69
2023-02-11T13:58:18.274Z,98039.88
2023-02-11T14:03:51.291Z,98033.63
2023-02-11T14:09:01.926Z,98025.72
2023-02-11T14:14:21.765Z,98031.47
2023-02-11T14:19:34.155Z,98029.59
2023-02-11T14:25:01.741Z,98028.53
2023-02-11T14:30:15.951Z,98028.28
2023-02-11T14:35:24.868Z,98025.31
2023-02-11T14:40:30.744Z,98021.78
2023-02-11T14:45:36.562Z,98017.66
2023-02-11T14:50:44.567Z,98023.09
2023-02-11T14:55:49.164Z,98029.09
2023-02-11T15:00:55.523Z,98032.41
2023-02-11T15:06:01.523Z,98032.31
2023-02-11T15:11:08.933Z,98032.44
2023-02-11T15:16:15.381Z,98024.47
2023-02-11T15:21:23.980Z,98025.78
2023-02-11T15:26:26.790Z,98026.25
2023-02-11T15:31:31.243Z,98021.91
2023-02-11T15:36:38.848Z,98020.59
2023-02-11T15:41:41.700Z,98013.63
2023-02-11T15:46:47.370Z,98009.31
2023-02-11T15:51:52.145Z,98013.53
2023-02-11T15:57:00.306Z,98009.81
2023-02-11T16:02:08.297Z,98010.31
2023-02-11T16:07:42.296Z,98011.78
2023-02-11T16:12:52.271Z,98011.56
2023-02-11T16:17:55.132Z,98011.19
2023-02-11T16:22:59.469Z,98009.06
2023-02-11T16:28:02.572Z,98012.19
2023-02-11T16:33:05.716Z,98019.72
2023-02-11T16:38:09.856Z,98010.75
2023-02-11T16:43:12.975Z,98010.69
2023-02-11T16:48:19.414Z,98017.66
2023-02-11T16:53:25.428Z,98020.59
2023-02-11T16:58:28.351Z,98017.31
2023-02-11T17:03:35.666Z,98025.47
2023-02-11T17:08:39.945Z,98030.06
2023-02-11T17:13:42.789Z,98016.50
2023-02-11T17:18:45.698Z,98017.00
2023-02-11T17:23:49.815Z,98027.25
2023-02-11T17:28:52.683Z,98039.69
2023-02-11T17:33:55.596Z,98050.78
2023-02-11T17:39:00.176Z,98052.66
2023-02-11T17:44:03.008Z,98047.00
2023-02-11T17:49:06.723Z,98042.66
2023-02-11T17:54:14.700Z,98045.59
2023-02-11T17:59:17.708Z,98051.25
2023-02-11T18:04:21.139Z,98053.63
2023-02-11T18:09:25.580Z,98073.72
2023-02-11T18:14:28.441Z,98076.44
2023-02-11T18:19:33.044Z,98086.81
2023-02-11T18:24:37.275Z,98088.69
2023-02-11T18:29:40.498Z,98089.75
2023-02-11T18:34:43.715Z,98095.19
2023-02-11T18:39:47.889Z,98100.06
2023-02-11T18:44:50.721Z,98101.59
2023-02-11T18:49:53.738Z,98111.38
2023-02-11T18:54:57.990Z,98105.47
2023-02-11T19:00:00.893Z,98104.66
2023-02-11T19:05:05.724Z,98108.19
2023-02-11T19:10:10.736Z,98100.84
2023-02-11T19:15:14.220Z,98112.56
2023-02-11T19:20:17.481Z,98111.13
2023-02-11T19:25:21.765Z,98115.16
2023-02-11T19:30:24.582Z,98114.81
2023-02-11T19:35:27.447Z,98121.66
2023-02-11T19:40:31.638Z,98127.09
2023-02-11T19:45:34.476Z,98126.59
2023-02-11T19:50:37.318Z,98122.81
2023-02-11T19:55:41.518Z,98122.00
2023-02-11T20:00:44.509Z,98115.72
2023-02-11T20:05:47.923Z,98114.59
2023-02-11T20:10:52.231Z,98112.91
2023-02-11T20:15:55.273Z,98116.47
2023-02-11T20:21:00.145Z,98109.72
2023-02-11T20:26:08.177Z,98105.09
2023-02-11T20:31:12.479Z,98109.50
2023-02-11T20:36:17.575Z,98105.59
2023-02-11T20:41:23.454Z,98098.31
2023-02-11T20:46:29.664Z,98098.53
2023-02-11T20:51:34.630Z,98093.34
2023-02-11T20:56:39.740Z,98098.78
2023-02-11T21:01:44.165Z,98102.06
2023-02-11T21:06:50.839Z,98100.75
2023-02-11T21:11:55.445Z,98098.03
2023-02-11T21:16:58.290Z,98102.66
2023-02-11T21:22:01.691Z,98097.69
2023-02-11T21:27:05.905Z,98103.34
2023-02-11T21:32:08.848Z,98111.50
2023-02-11T21:37:11.673Z,98111.50
2023-02-11T21:42:15.848Z,98111.88
2023-02-11T21:47:18.767Z,98121.06
2023-02-11T21:52:21.558Z,98117.53
2023-02-11T21:57:25.722Z,98118.94
2023-02-11T22:02:28.571Z,98115.63
2023-02-11T22:07:31.374Z,98116.13
2023-02-11T22:12:35.579Z,98106.06
2023-02-11T22:17:38.611Z,98109.84
2023-02-11T22:22:41.501Z,98110.69
2023-02-11T22:27:45.758Z,98111.50
2023-02-11T22:32:49.399Z,98103.97
2023-02-11T22:37:52.191Z,98113.19
2023-02-11T22:42:58.626Z,98112.56
2023-02-11T22:48:01.492Z,98121.78
2023-02-11T22:53:04.577Z,98132.41
2023-02-11T22:58:08.829Z,98117.78
2023-02-11T23:03:11.805Z,98126.75
2023-02-11T23:08:14.640Z,98127.78
2023-02-11T23:13:18.886Z,98122.34
2023-02-11T23:18:21.704Z,98124.72
2023-02-11T23:23:25.370Z,98138.31
2023-02-11T23:28:30.139Z,98140.22
2023-02-11T23:33:33.002Z,98144.06
2023-02-11T23:38:35.806Z,98136.75
2023-02-11T23:43:40.114Z,98134.88
2023-02-11T23:48:42.989Z,98137.00
2023-02-11T23:53:46.355Z,98125.22
2023-02-11T23:58:50.878Z,98119.31
